sensor_id;sensor_type;location;lat;lon;timestamp;P1;durP1;ratioP1;P2;durP2;ratioP2
6928;SDS011;3504;52.616;13.238;2023-10-08T00:00:44;4.50;;;1.70;;
6928;SDS011;3504;52.616;13.238;2023-10-08T00:05:53;7.57;;;1.90;;
6928;SDS011;3504;52.616;13.238;2023-10-08T00:10:54;6.03;;;1.93;;
6928;SDS011;3504;52.616;13.238;2023-10-08T00:15:56;4.67;;;1.80;;
6928;SDS011;3504;52.616;13.238;2023-10-08T00:20:57;4.77;;;1.93;;
6928;SDS011;3504;52.616;13.238;2023-10-08T00:26:12;8.23;;;2.53;;
6928;SDS011;3504;52.616;13.238;2023-10-08T00:31:17;6.93;;;2.83;;
6928;SDS011;3504;52.616;13.238;2023-10-08T00:36:17;6.57;;;2.60;;
6928;SDS011;3504;52.616;13.238;2023-10-08T00:41:18;6.30;;;2.67;;
6928;SDS011;3504;52.616;13.238;2023-10-08T00:46:22;8.77;;;2.83;;
6928;SDS011;3504;52.616;13.238;2023-10-08T00:51:24;6.23;;;2.50;;
6928;SDS011;3504;52.616;13.238;2023-10-08T00:56:28;13.43;;;3.07;;
6928;SDS011;3504;52.616;13.238;2023-10-08T01:01:50;6.37;;;2.87;;
6928;SDS011;3504;52.616;13.238;2023-10-08T01:06:53;5.67;;;2.33;;
6928;SDS011;3504;52.616;13.238;2023-10-08T01:17:26;8.67;;;2.90;;
6928;SDS011;3504;52.616;13.238;2023-10-08T01:22:32;5.63;;;2.33;;
6928;SDS011;3504;52.616;13.238;2023-10-08T01:27:33;5.87;;;3.10;;
6928;SDS011;3504;52.616;13.238;2023-10-08T01:32:40;7.63;;;3.13;;
6928;SDS011;3504;52.616;13.238;2023-10-08T01:37:41;7.70;;;2.70;;
6928;SDS011;3504;52.616;13.238;2023-10-08T01:42:41;9.70;;;3.37;;
6928;SDS011;3504;52.616;13.238;2023-10-08T01:47:42;6.07;;;3.30;;
6928;SDS011;3504;52.616;13.238;2023-10-08T01:52:43;9.53;;;3.97;;
6928;SDS011;3504;52.616;13.238;2023-10-08T01:57:46;10.90;;;4.30;;
6928;SDS011;3504;52.616;13.238;2023-10-08T02:02:51;10.53;;;3.97;;
6928;SDS011;3504;52.616;13.238;2023-10-08T02:07:53;10.27;;;4.20;;
6928;SDS011;3504;52.616;13.238;2023-10-08T02:12:54;11.20;;;4.47;;
6928;SDS011;3504;52.616;13.238;2023-10-08T02:17:55;11.37;;;4.90;;
6928;SDS011;3504;52.616;13.238;2023-10-08T02:22:56;11.30;;;4.70;;
6928;SDS011;3504;52.616;13.238;2023-10-08T02:28:00;10.07;;;4.57;;
6928;SDS011;3504;52.616;13.238;2023-10-08T02:33:03;14.67;;;5.07;;
6928;SDS011;3504;52.616;13.238;2023-10-08T02:38:14;10.17;;;5.03;;
6928;SDS011;3504;52.616;13.238;2023-10-08T02:43:17;10.90;;;4.80;;
6928;SDS011;3504;52.616;13.238;2023-10-08T02:48:18;17.47;;;5.40;;
6928;SDS011;3504;52.616;13.238;2023-10-08T02:53:20;8.00;;;4.63;;
6928;SDS011;3504;52.616;13.238;2023-10-08T02:58:25;15.90;;;5.20;;
6928;SDS011;3504;52.616;13.238;2023-10-08T03:03:28;14.87;;;5.00;;
6928;SDS011;3504;52.616;13.238;2023-10-08T03:08:29;11.83;;;4.53;;
6928;SDS011;3504;52.616;13.238;2023-10-08T03:13:31;11.27;;;5.17;;
6928;SDS011;3504;52.616;13.238;2023-10-08T03:18:31;10.27;;;4.43;;
6928;SDS011;3504;52.616;13.238;2023-10-08T03:23:36;17.30;;;4.20;;
6928;SDS011;3504;52.616;13.238;2023-10-08T03:28:44;12.00;;;4.30;;
6928;SDS011;3504;52.616;13.238;2023-10-08T03:33:44;11.10;;;4.43;;
6928;SDS011;3504;52.616;13.238;2023-10-08T03:38:49;13.60;;;4.93;;
6928;SDS011;3504;52.616;13.238;2023-10-08T03:43:53;8.73;;;4.17;;
6928;SDS011;3504;52.616;13.238;2023-10-08T03:48:58;18.07;;;4.70;;
6928;SDS011;3504;52.616;13.238;2023-10-08T03:54:07;12.47;;;4.80;;
6928;SDS011;3504;52.616;13.238;2023-10-08T03:59:18;11.97;;;4.07;;
6928;SDS011;3504;52.616;13.238;2023-10-08T04:04:31;10.37;;;4.43;;
6928;SDS011;3504;52.616;13.238;2023-10-08T04:09:49;12.83;;;4.43;;
6928;SDS011;3504;52.616;13.238;2023-10-08T04:14:52;11.50;;;4.80;;
6928;SDS011;3504;52.616;13.238;2023-10-08T04:19:55;12.07;;;4.43;;
6928;SDS011;3504;52.616;13.238;2023-10-08T04:24:58;10.40;;;4.90;;
6928;SDS011;3504;52.616;13.238;2023-10-08T04:30:02;9.97;;;4.40;;
6928;SDS011;3504;52.616;13.238;2023-10-08T04:35:03;8.73;;;4.60;;
6928;SDS011;3504;52.616;13.238;2023-10-08T04:40:08;7.50;;;3.70;;
6928;SDS011;3504;52.616;13.238;2023-10-08T04:45:16;9.17;;;3.70;;
6928;SDS011;3504;52.616;13.238;2023-10-08T04:50:19;7.90;;;3.80;;
6928;SDS011;3504;52.616;13.238;2023-10-08T04:55:21;8.53;;;3.57;;
6928;SDS011;3504;52.616;13.238;2023-10-08T05:00:28;9.13;;;4.10;;
6928;SDS011;3504;52.616;13.238;2023-10-08T05:05:42;7.90;;;4.20;;
6928;SDS011;3504;52.616;13.238;2023-10-08T05:11:02;9.60;;;3.87;;
6928;SDS011;3504;52.616;13.238;2023-10-08T05:16:15;7.93;;;3.90;;
6928;SDS011;3504;52.616;13.238;2023-10-08T05:21:36;13.30;;;4.67;;
6928;SDS011;3504;52.616;13.238;2023-10-08T05:26:51;7.17;;;4.20;;
6928;SDS011;3504;52.616;13.238;2023-10-08T05:32:09;8.33;;;4.17;;
6928;SDS011;3504;52.616;13.238;2023-10-08T05:37:38;8.30;;;4.10;;
6928;SDS011;3504;52.616;13.238;2023-10-08T05:42:42;9.60;;;4.60;;
6928;SDS011;3504;52.616;13.238;2023-10-08T05:48:00;8.30;;;3.87;;
6928;SDS011;3504;52.616;13.238;2023-10-08T05:53:13;11.33;;;5.73;;
6928;SDS011;3504;52.616;13.238;2023-10-08T05:58:29;8.33;;;5.97;;
6928;SDS011;3504;52.616;13.238;2023-10-08T06:03:45;7.20;;;4.90;;
6928;SDS011;3504;52.616;13.238;2023-10-08T06:09:00;8.73;;;5.23;;
6928;SDS011;3504;52.616;13.238;2023-10-08T06:14:21;7.47;;;4.40;;
6928;SDS011;3504;52.616;13.238;2023-10-08T06:19:40;9.53;;;5.07;;
6928;SDS011;3504;52.616;13.238;2023-10-08T06:24:41;10.77;;;4.50;;
6928;SDS011;3504;52.616;13.238;2023-10-08T06:29:41;11.43;;;4.73;;
6928;SDS011;3504;52.616;13.238;2023-10-08T06:34:44;10.53;;;5.27;;
6928;SDS011;3504;52.616;13.238;2023-10-08T06:39:47;9.53;;;5.10;;
6928;SDS011;3504;52.616;13.238;2023-10-08T06:44:48;9.57;;;4.27;;
6928;SDS011;3504;52.616;13.238;2023-10-08T06:49:48;9.93;;;5.30;;
6928;SDS011;3504;52.616;13.238;2023-10-08T06:54:51;14.57;;;6.00;;
6928;SDS011;3504;52.616;13.238;2023-10-08T06:59:53;16.43;;;7.80;;
6928;SDS011;3504;52.616;13.238;2023-10-08T07:04:53;12.63;;;4.97;;
6928;SDS011;3504;52.616;13.238;2023-10-08T07:09:54;9.20;;;4.37;;
6928;SDS011;3504;52.616;13.238;2023-10-08T07:14:57;6.17;;;3.57;;
6928;SDS011;3504;52.616;13.238;2023-10-08T07:19:58;9.33;;;3.07;;
6928;SDS011;3504;52.616;13.238;2023-10-08T07:24:59;6.07;;;2.67;;
6928;SDS011;3504;52.616;13.238;2023-10-08T07:30:00;15.43;;;2.77;;
6928;SDS011;3504;52.616;13.238;2023-10-08T07:35:02;5.80;;;2.30;;
6928;SDS011;3504;52.616;13.238;2023-10-08T07:40:23;5.37;;;2.17;;
6928;SDS011;3504;52.616;13.238;2023-10-08T07:45:29;5.50;;;2.73;;
6928;SDS011;3504;52.616;13.238;2023-10-08T07:50:35;8.20;;;5.07;;
6928;SDS011;3504;52.616;13.238;2023-10-08T07:55:41;8.83;;;3.80;;
6928;SDS011;3504;52.616;13.238;2023-10-08T08:00:44;7.07;;;2.87;;
6928;SDS011;3504;52.616;13.238;2023-10-08T08:05:56;5.37;;;2.30;;
6928;SDS011;3504;52.616;13.238;2023-10-08T08:10:59;3.07;;;2.30;;
6928;SDS011;3504;52.616;13.238;2023-10-08T08:16:05;4.47;;;2.00;;
6928;SDS011;3504;52.616;13.238;2023-10-08T08:21:19;4.07;;;1.83;;
6928;SDS011;3504;52.616;13.238;2023-10-08T08:26:20;6.50;;;3.17;;
6928;SDS011;3504;52.616;13.238;2023-10-08T08:31:27;5.90;;;2.20;;
6928;SDS011;3504;52.616;13.238;2023-10-08T08:36:31;2.40;;;1.80;;
6928;SDS011;3504;52.616;13.238;2023-10-08T08:41:32;2.47;;;1.10;;
6928;SDS011;3504;52.616;13.238;2023-10-08T08:46:36;1.97;;;1.50;;
6928;SDS011;3504;52.616;13.238;2023-10-08T08:51:38;5.17;;;1.80;;
6928;SDS011;3504;52.616;13.238;2023-10-08T08:56:38;5.27;;;1.60;;
6928;SDS011;3504;52.616;13.238;2023-10-08T09:01:40;3.17;;;1.23;;
6928;SDS011;3504;52.616;13.238;2023-10-08T09:06:42;6.03;;;1.47;;
6928;SDS011;3504;52.616;13.238;2023-10-08T09:11:45;4.77;;;1.20;;
6928;SDS011;3504;52.616;13.238;2023-10-08T09:16:45;3.07;;;1.20;;
6928;SDS011;3504;52.616;13.238;2023-10-08T09:21:59;3.00;;;1.50;;
6928;SDS011;3504;52.616;13.238;2023-10-08T09:27:08;3.23;;;1.60;;
6928;SDS011;3504;52.616;13.238;2023-10-08T09:32:14;3.07;;;1.77;;
6928;SDS011;3504;52.616;13.238;2023-10-08T09:37:23;3.03;;;1.60;;
6928;SDS011;3504;52.616;13.238;2023-10-08T09:42:23;1.97;;;1.30;;
6928;SDS011;3504;52.616;13.238;2023-10-08T09:47:25;3.87;;;1.50;;
6928;SDS011;3504;52.616;13.238;2023-10-08T09:52:33;3.30;;;1.40;;
6928;SDS011;3504;52.616;13.238;2023-10-08T09:57:39;2.97;;;1.87;;
6928;SDS011;3504;52.616;13.238;2023-10-08T10:02:42;4.03;;;1.20;;
6928;SDS011;3504;52.616;13.238;2023-10-08T10:07:43;1.70;;;0.83;;
6928;SDS011;3504;52.616;13.238;2023-10-08T10:12:44;3.37;;;1.33;;
6928;SDS011;3504;52.616;13.238;2023-10-08T10:17:44;1.77;;;1.03;;
6928;SDS011;3504;52.616;13.238;2023-10-08T10:22:47;1.20;;;1.10;;
6928;SDS011;3504;52.616;13.238;2023-10-08T10:32:51;2.03;;;1.83;;
6928;SDS011;3504;52.616;13.238;2023-10-08T10:37:52;1.33;;;1.00;;
6928;SDS011;3504;52.616;13.238;2023-10-08T10:42:53;5.00;;;1.20;;
6928;SDS011;3504;52.616;13.238;2023-10-08T10:47:56;3.13;;;1.57;;
6928;SDS011;3504;52.616;13.238;2023-10-08T10:53:10;2.20;;;1.10;;
6928;SDS011;3504;52.616;13.238;2023-10-08T10:58:11;1.57;;;1.00;;
6928;SDS011;3504;52.616;13.238;2023-10-08T11:03:11;2.38;;;0.90;;
6928;SDS011;3504;52.616;13.238;2023-10-08T11:08:23;2.00;;;1.10;;
6928;SDS011;3504;52.616;13.238;2023-10-08T11:13:24;2.43;;;1.10;;
6928;SDS011;3504;52.616;13.238;2023-10-08T11:18:42;2.30;;;1.10;;
6928;SDS011;3504;52.616;13.238;2023-10-08T11:23:47;2.10;;;0.90;;
6928;SDS011;3504;52.616;13.238;2023-10-08T11:29:08;2.75;;;1.30;;
6928;SDS011;3504;52.616;13.238;2023-10-08T11:34:15;3.78;;;1.08;;
6928;SDS011;3504;52.616;13.238;2023-10-08T11:39:19;1.10;;;1.00;;
6928;SDS011;3504;52.616;13.238;2023-10-08T11:44:23;1.13;;;0.90;;
6928;SDS011;3504;52.616;13.238;2023-10-08T11:49:24;0.75;;;0.70;;
6928;SDS011;3504;52.616;13.238;2023-10-08T11:54:25;1.27;;;1.00;;
6928;SDS011;3504;52.616;13.238;2023-10-08T11:59:27;1.80;;;1.00;;
6928;SDS011;3504;52.616;13.238;2023-10-08T12:04:29;0.80;;;0.80;;
6928;SDS011;3504;52.616;13.238;2023-10-08T12:09:30;1.83;;;1.00;;
6928;SDS011;3504;52.616;13.238;2023-10-08T12:14:30;1.23;;;0.90;;
6928;SDS011;3504;52.616;13.238;2023-10-08T12:19:31;1.38;;;0.90;;
6928;SDS011;3504;52.616;13.238;2023-10-08T12:24:32;3.75;;;1.50;;
6928;SDS011;3504;52.616;13.238;2023-10-08T12:29:33;2.83;;;1.10;;
6928;SDS011;3504;52.616;13.238;2023-10-08T12:34:35;2.05;;;1.05;;
6928;SDS011;3504;52.616;13.238;2023-10-08T12:39:35;2.47;;;1.20;;
6928;SDS011;3504;52.616;13.238;2023-10-08T12:44:50;5.47;;;1.05;;
6928;SDS011;3504;52.616;13.238;2023-10-08T12:49:50;2.15;;;1.15;;
6928;SDS011;3504;52.616;13.238;2023-10-08T12:54:54;2.13;;;1.27;;
6928;SDS011;3504;52.616;13.238;2023-10-08T12:59:55;1.90;;;0.95;;
6928;SDS011;3504;52.616;13.238;2023-10-08T13:04:57;1.70;;;1.00;;
6928;SDS011;3504;52.616;13.238;2023-10-08T13:09:59;1.55;;;0.90;;
6928;SDS011;3504;52.616;13.238;2023-10-08T13:15:00;1.40;;;1.00;;
6928;SDS011;3504;52.616;13.238;2023-10-08T13:20:06;1.83;;;1.53;;
6928;SDS011;3504;52.616;13.238;2023-10-08T13:25:11;3.70;;;1.50;;
6928;SDS011;3504;52.616;13.238;2023-10-08T13:30:12;2.17;;;1.00;;
6928;SDS011;3504;52.616;13.238;2023-10-08T13:35:13;3.10;;;1.10;;
6928;SDS011;3504;52.616;13.238;2023-10-08T13:40:13;3.20;;;1.23;;
6928;SDS011;3504;52.616;13.238;2023-10-08T13:45:15;1.17;;;0.83;;
6928;SDS011;3504;52.616;13.238;2023-10-08T13:50:26;3.60;;;1.10;;
6928;SDS011;3504;52.616;13.238;2023-10-08T13:55:30;2.20;;;1.00;;
6928;SDS011;3504;52.616;13.238;2023-10-08T14:00:30;1.33;;;0.90;;
6928;SDS011;3504;52.616;13.238;2023-10-08T14:05:36;1.23;;;1.03;;
6928;SDS011;3504;52.616;13.238;2023-10-08T14:10:37;1.95;;;1.10;;
6928;SDS011;3504;52.616;13.238;2023-10-08T14:15:38;1.50;;;1.03;;
6928;SDS011;3504;52.616;13.238;2023-10-08T14:20:44;2.10;;;1.00;;
6928;SDS011;3504;52.616;13.238;2023-10-08T14:25:46;1.10;;;0.97;;
6928;SDS011;3504;52.616;13.238;2023-10-08T14:30:49;1.10;;;1.00;;
6928;SDS011;3504;52.616;13.238;2023-10-08T14:35:55;1.30;;;1.10;;
6928;SDS011;3504;52.616;13.238;2023-10-08T14:41:15;2.33;;;1.20;;
6928;SDS011;3504;52.616;13.238;2023-10-08T14:46:34;5.13;;;4.63;;
6928;SDS011;3504;52.616;13.238;2023-10-08T14:51:37;4.10;;;2.50;;
6928;SDS011;3504;52.616;13.238;2023-10-08T14:56:40;3.97;;;1.57;;
6928;SDS011;3504;52.616;13.238;2023-10-08T15:01:40;2.37;;;1.50;;
6928;SDS011;3504;52.616;13.238;2023-10-08T15:06:41;1.83;;;1.40;;
6928;SDS011;3504;52.616;13.238;2023-10-08T15:11:43;2.30;;;1.43;;
6928;SDS011;3504;52.616;13.238;2023-10-08T15:16:46;2.87;;;2.07;;
6928;SDS011;3504;52.616;13.238;2023-10-08T15:21:52;2.73;;;1.93;;
6928;SDS011;3504;52.616;13.238;2023-10-08T15:26:53;3.20;;;1.70;;
6928;SDS011;3504;52.616;13.238;2023-10-08T15:31:54;3.50;;;1.90;;
6928;SDS011;3504;52.616;13.238;2023-10-08T15:36:55;2.83;;;1.50;;
6928;SDS011;3504;52.616;13.238;2023-10-08T15:41:56;2.27;;;1.47;;
6928;SDS011;3504;52.616;13.238;2023-10-08T15:46:57;3.30;;;1.93;;
6928;SDS011;3504;52.616;13.238;2023-10-08T15:51:57;2.70;;;2.00;;
6928;SDS011;3504;52.616;13.238;2023-10-08T15:56:58;13.23;;;8.83;;
6928;SDS011;3504;52.616;13.238;2023-10-08T16:01:59;9.13;;;6.53;;
6928;SDS011;3504;52.616;13.238;2023-10-08T16:06:59;11.53;;;8.60;;
6928;SDS011;3504;52.616;13.238;2023-10-08T16:12:00;11.53;;;6.90;;
6928;SDS011;3504;52.616;13.238;2023-10-08T16:17:01;9.53;;;6.10;;
6928;SDS011;3504;52.616;13.238;2023-10-08T16:22:04;6.83;;;5.17;;
6928;SDS011;3504;52.616;13.238;2023-10-08T16:27:04;7.57;;;5.17;;
6928;SDS011;3504;52.616;13.238;2023-10-08T16:32:06;8.77;;;6.30;;
6928;SDS011;3504;52.616;13.238;2023-10-08T16:37:07;16.83;;;10.40;;
6928;SDS011;3504;52.616;13.238;2023-10-08T16:42:08;14.57;;;8.00;;
6928;SDS011;3504;52.616;13.238;2023-10-08T16:47:08;13.33;;;8.30;;
6928;SDS011;3504;52.616;13.238;2023-10-08T16:52:11;24.03;;;13.77;;
6928;SDS011;3504;52.616;13.238;2023-10-08T16:57:11;19.50;;;11.43;;
6928;SDS011;3504;52.616;13.238;2023-10-08T17:02:13;11.73;;;7.80;;
6928;SDS011;3504;52.616;13.238;2023-10-08T17:07:14;8.17;;;6.50;;
6928;SDS011;3504;52.616;13.238;2023-10-08T17:12:15;9.97;;;8.50;;
6928;SDS011;3504;52.616;13.238;2023-10-08T17:17:19;10.47;;;8.47;;
6928;SDS011;3504;52.616;13.238;2023-10-08T17:22:19;8.77;;;7.50;;
6928;SDS011;3504;52.616;13.238;2023-10-08T17:27:20;6.10;;;4.80;;
6928;SDS011;3504;52.616;13.238;2023-10-08T17:32:20;7.17;;;3.50;;
6928;SDS011;3504;52.616;13.238;2023-10-08T17:37:21;3.27;;;2.70;;
6928;SDS011;3504;52.616;13.238;2023-10-08T17:42:23;5.97;;;2.70;;
6928;SDS011;3504;52.616;13.238;2023-10-08T17:47:24;5.33;;;3.80;;
6928;SDS011;3504;52.616;13.238;2023-10-08T17:52:28;9.40;;;5.37;;
6928;SDS011;3504;52.616;13.238;2023-10-08T17:57:29;12.03;;;7.97;;
6928;SDS011;3504;52.616;13.238;2023-10-08T18:02:30;22.70;;;14.23;;
6928;SDS011;3504;52.616;13.238;2023-10-08T18:07:31;16.27;;;11.23;;
6928;SDS011;3504;52.616;13.238;2023-10-08T18:12:32;19.83;;;13.60;;
6928;SDS011;3504;52.616;13.238;2023-10-08T18:17:32;14.10;;;12.20;;
6928;SDS011;3504;52.616;13.238;2023-10-08T18:22:33;15.37;;;13.03;;
6928;SDS011;3504;52.616;13.238;2023-10-08T18:27:34;14.37;;;9.90;;
6928;SDS011;3504;52.616;13.238;2023-10-08T18:32:36;10.37;;;6.60;;
6928;SDS011;3504;52.616;13.238;2023-10-08T18:37:37;7.60;;;6.33;;
6928;SDS011;3504;52.616;13.238;2023-10-08T18:42:43;7.73;;;6.90;;
6928;SDS011;3504;52.616;13.238;2023-10-08T18:47:47;8.17;;;6.07;;
6928;SDS011;3504;52.616;13.238;2023-10-08T18:52:47;7.27;;;5.03;;
6928;SDS011;3504;52.616;13.238;2023-10-08T18:57:48;6.17;;;5.20;;
6928;SDS011;3504;52.616;13.238;2023-10-08T19:02:55;4.77;;;2.70;;
6928;SDS011;3504;52.616;13.238;2023-10-08T19:07:57;3.77;;;2.80;;
6928;SDS011;3504;52.616;13.238;2023-10-08T19:12:58;5.43;;;3.57;;
6928;SDS011;3504;52.616;13.238;2023-10-08T19:17:58;4.63;;;3.77;;
6928;SDS011;3504;52.616;13.238;2023-10-08T19:23:04;5.63;;;3.73;;
6928;SDS011;3504;52.616;13.238;2023-10-08T19:28:08;4.10;;;3.43;;
6928;SDS011;3504;52.616;13.238;2023-10-08T19:33:11;5.83;;;4.03;;
6928;SDS011;3504;52.616;13.238;2023-10-08T19:38:13;5.63;;;4.07;;
6928;SDS011;3504;52.616;13.238;2023-10-08T19:43:13;7.47;;;4.47;;
6928;SDS011;3504;52.616;13.238;2023-10-08T19:48:14;7.70;;;4.37;;
6928;SDS011;3504;52.616;13.238;2023-10-08T19:53:15;8.07;;;5.60;;
6928;SDS011;3504;52.616;13.238;2023-10-08T19:58:15;11.87;;;7.97;;
6928;SDS011;3504;52.616;13.238;2023-10-08T20:03:17;9.03;;;6.97;;
6928;SDS011;3504;52.616;13.238;2023-10-08T20:08:20;7.63;;;5.60;;
6928;SDS011;3504;52.616;13.238;2023-10-08T20:13:20;7.07;;;5.67;;
6928;SDS011;3504;52.616;13.238;2023-10-08T20:18:22;7.60;;;5.20;;
6928;SDS011;3504;52.616;13.238;2023-10-08T20:23:26;11.07;;;6.77;;
6928;SDS011;3504;52.616;13.238;2023-10-08T20:28:29;7.07;;;5.50;;
6928;SDS011;3504;52.616;13.238;2023-10-08T20:33:30;9.77;;;7.57;;
6928;SDS011;3504;52.616;13.238;2023-10-08T20:38:30;9.47;;;7.10;;
6928;SDS011;3504;52.616;13.238;2023-10-08T20:43:32;7.77;;;5.77;;
6928;SDS011;3504;52.616;13.238;2023-10-08T20:48:32;12.00;;;5.97;;
6928;SDS011;3504;52.616;13.238;2023-10-08T20:53:34;6.70;;;4.87;;
6928;SDS011;3504;52.616;13.238;2023-10-08T20:58:34;7.70;;;4.57;;
6928;SDS011;3504;52.616;13.238;2023-10-08T21:03:36;5.93;;;3.90;;
6928;SDS011;3504;52.616;13.238;2023-10-08T21:08:36;6.03;;;4.63;;
6928;SDS011;3504;52.616;13.238;2023-10-08T21:13:37;6.93;;;4.73;;
6928;SDS011;3504;52.616;13.238;2023-10-08T21:18:38;4.80;;;4.30;;
6928;SDS011;3504;52.616;13.238;2023-10-08T21:23:38;8.73;;;4.33;;
6928;SDS011;3504;52.616;13.238;2023-10-08T21:28:39;8.57;;;5.70;;
6928;SDS011;3504;52.616;13.238;2023-10-08T21:33:39;8.87;;;5.77;;
6928;SDS011;3504;52.616;13.238;2023-10-08T21:38:40;6.17;;;5.27;;
6928;SDS011;3504;52.616;13.238;2023-10-08T21:43:42;6.17;;;5.00;;
6928;SDS011;3504;52.616;13.238;2023-10-08T21:48:42;6.60;;;5.23;;
6928;SDS011;3504;52.616;13.238;2023-10-08T21:53:43;8.30;;;5.80;;
6928;SDS011;3504;52.616;13.238;2023-10-08T21:58:44;9.60;;;5.00;;
6928;SDS011;3504;52.616;13.238;2023-10-08T22:03:46;6.90;;;5.20;;
6928;SDS011;3504;52.616;13.238;2023-10-08T22:08:47;10.07;;;4.97;;
6928;SDS011;3504;52.616;13.238;2023-10-08T22:13:48;6.27;;;4.87;;
6928;SDS011;3504;52.616;13.238;2023-10-08T22:18:49;5.50;;;4.63;;
6928;SDS011;3504;52.616;13.238;2023-10-08T22:23:56;6.47;;;3.93;;
6928;SDS011;3504;52.616;13.238;2023-10-08T22:28:57;4.57;;;3.87;;
6928;SDS011;3504;52.616;13.238;2023-10-08T22:33:57;4.20;;;3.40;;
6928;SDS011;3504;52.616;13.238;2023-10-08T22:39:04;6.27;;;4.33;;
6928;SDS011;3504;52.616;13.238;2023-10-08T22:44:10;5.50;;;3.90;;
6928;SDS011;3504;52.616;13.238;2023-10-08T22:49:14;5.37;;;3.60;;
6928;SDS011;3504;52.616;13.238;2023-10-08T22:54:17;6.83;;;4.00;;
6928;SDS011;3504;52.616;13.238;2023-10-08T22:59:18;4.77;;;4.10;;
6928;SDS011;3504;52.616;13.238;2023-10-08T23:04:20;6.03;;;3.60;;
6928;SDS011;3504;52.616;13.238;2023-10-08T23:09:20;4.97;;;3.40;;
6928;SDS011;3504;52.616;13.238;2023-10-08T23:14:25;7.63;;;3.83;;
6928;SDS011;3504;52.616;13.238;2023-10-08T23:19:28;6.23;;;4.00;;
6928;SDS011;3504;52.616;13.238;2023-10-08T23:24:30;5.67;;;3.53;;
6928;SDS011;3504;52.616;13.238;2023-10-08T23:29:32;4.93;;;3.83;;
6928;SDS011;3504;52.616;13.238;2023-10-08T23:34:32;6.00;;;4.03;;
6928;SDS011;3504;52.616;13.238;2023-10-08T23:39:33;5.00;;;4.07;;
6928;SDS011;3504;52.616;13.238;2023-10-08T23:44:36;8.40;;;4.30;;
6928;SDS011;3504;52.616;13.238;2023-10-08T23:49:37;7.30;;;4.27;;
6928;SDS011;3504;52.616;13.238;2023-10-08T23:54:47;6.00;;;4.40;;
6928;SDS011;3504;52.616;13.238;2023-10-08T23:59:57;6.13;;;3.87;;
